Time;durP1;ratioP1;P1;durP2;ratioP2;P2;SDS_P1;SDS_P2;PMS_P1;PMS_P2;Temp;Humidity;BMP_temperature;BMP_pressure;BME280_temperature;BME280_humidity;BME280_pressure;Samples;Min_cycle;Max_cycle;Signal;HPM_P1;HPM_P2
2023/12/21 00:00:51;;;;;;;;;;;10.80;99.90;;;;;;7335788;19;108870;-69
2023/12/21 00:03:18;;;;;;;;;;;10.80;99.90;;;;;;7333761;19;108742;-69
2023/12/21 00:05:45;;;;;;;;;;;10.80;99.90;;;;;;7341748;19;110462;-69
2023/12/21 00:08:12;;;;;;;;;;;10.80;99.90;;;;;;7333662;19;109498;-69
2023/12/21 00:10:40;;;;;;;;;;;10.80;99.90;;;;;;7335699;19;109023;-69
2023/12/21 00:13:07;;;;;;;;;;;10.80;99.90;;;;;;7332825;19;109574;-69
2023/12/21 00:15:34;;;;;;;;;;;10.80;99.90;;;;;;7333507;19;109698;-69
2023/12/21 00:18:01;;;;;;;;;;;10.80;99.90;;;;;;7333053;19;109416;-69
2023/12/21 00:20:28;;;;;;;;;;;10.90;99.90;;;;;;7334934;19;109094;-69
2023/12/21 00:22:55;;;;;;;;;;;10.90;99.90;;;;;;7340466;19;108603;-69
2023/12/21 00:25:22;;;;;;;;;;;10.90;99.90;;;;;;7344389;19;108997;-69
2023/12/21 00:27:49;;;;;;;;;;;10.80;99.90;;;;;;7338510;19;108612;-69
2023/12/21 00:30:17;;;;;;;;;;;10.80;99.90;;;;;;7339818;19;108552;-69
2023/12/21 00:32:44;;;;;;;;;;;10.80;99.90;;;;;;7341720;19;109483;-69
2023/12/21 00:35:11;;;;;;;;;;;10.90;99.90;;;;;;7339153;19;112975;-69
2023/12/21 00:37:38;;;;;;;;;;;10.90;99.90;;;;;;7341010;19;109071;-69
2023/12/21 00:40:05;;;;;;;;;;;10.90;99.90;;;;;;7340448;19;110414;-68
2023/12/21 00:42:33;;;;;;;;;;;10.90;99.90;;;;;;7341097;19;108426;-69
2023/12/21 00:45:00;;;;;;;;;;;10.90;99.90;;;;;;7342863;19;109311;-69
2023/12/21 00:47:27;;;;;;;;;;;10.90;99.90;;;;;;7346428;19;109194;-69
2023/12/21 00:49:55;;;;;;;;;;;10.90;99.90;;;;;;7343726;19;110316;-69
2023/12/21 00:52:22;;;;;;;;;;;10.90;99.90;;;;;;7339120;19;109265;-69
2023/12/21 00:54:50;;;;;;;;;;;10.90;99.90;;;;;;7341533;19;112212;-69
2023/12/21 00:57:17;;;;;;;;;;;10.90;99.90;;;;;;7339410;19;108867;-69
2023/12/21 00:59:44;;;;;;;;;;;10.90;99.90;;;;;;7338993;19;109185;-69
2023/12/21 01:02:11;;;;;;;;;;;10.90;99.90;;;;;;7340659;19;109905;-69
2023/12/21 01:04:38;;;;;;;;;;;10.90;99.90;;;;;;7338624;19;109133;-69
2023/12/21 01:07:06;;;;;;;;;;;10.90;99.90;;;;;;7340428;19;110280;-69
2023/12/21 01:09:33;;;;;;;;;;;10.90;99.90;;;;;;7345991;19;108313;-70
2023/12/21 01:12:00;;;;;;;;;;;11.00;99.90;;;;;;7339806;19;109151;-69
2023/12/21 01:14:29;;;;;;;;;;;10.90;99.90;;;;;;7335545;19;109864;-69
2023/12/21 01:16:56;;;;;;;;;;;10.90;99.90;;;;;;7338474;19;109242;-69
2023/12/21 01:19:24;;;;;;;;;;;10.90;99.90;;;;;;7337164;19;109781;-69
2023/12/21 01:21:51;;;;;;;;;;;10.90;99.90;;;;;;7339755;19;109520;-76
2023/12/21 01:24:18;;;;;;;;;;;10.90;99.90;;;;;;7337865;19;108862;-73
2023/12/21 01:26:45;;;;;;;;;;;10.90;99.90;;;;;;7338364;19;109115;-75
2023/12/21 01:29:12;;;;;;;;;;;10.90;99.90;;;;;;7339018;19;108988;-75
2023/12/21 01:31:39;;;;;;;;;;;10.90;99.90;;;;;;7340403;19;108977;-70
2023/12/21 01:34:06;;;;;;;;;;;10.90;99.90;;;;;;7337935;19;110251;-69
2023/12/21 01:36:34;;;;;;;;;;;10.90;99.90;;;;;;7336756;19;109658;-69
2023/12/21 01:39:01;;;;;;;;;;;10.90;99.90;;;;;;7338805;19;109140;-69
2023/12/21 01:41:28;;;;;;;;;;;10.90;99.90;;;;;;7336647;19;110045;-69
2023/12/21 01:43:56;;;;;;;;;;;10.90;99.90;;;;;;7337760;19;111048;-69
2023/12/21 01:46:23;;;;;;;;;;;10.90;99.90;;;;;;7338365;19;109876;-69
2023/12/21 01:48:51;;;;;;;;;;;10.90;99.90;;;;;;7342272;19;109341;-69
2023/12/21 01:51:18;;;;;;;;;;;10.90;99.90;;;;;;7337296;19;108854;-71
2023/12/21 01:53:45;;;;;;;;;;;10.90;99.90;;;;;;7343717;19;109465;-70
2023/12/21 01:56:13;;;;;;;;;;;11.00;99.90;;;;;;7338124;19;110650;-70
2023/12/21 01:58:40;;;;;;;;;;;10.90;99.90;;;;;;7335572;19;109177;-74
2023/12/21 02:01:07;;;;;;;;;;;10.90;99.90;;;;;;7334962;19;109008;-70
2023/12/21 02:03:34;;;;;;;;;;;10.90;99.90;;;;;;7337209;19;109507;-70
2023/12/21 02:06:01;;;;;;;;;;;10.90;99.90;;;;;;7334239;19;109212;-69
2023/12/21 02:08:29;;;;;;;;;;;10.90;99.90;;;;;;7336852;19;109200;-69
2023/12/21 02:10:56;;;;;;;;;;;10.90;99.90;;;;;;7337373;19;111075;-69
2023/12/21 02:13:23;;;;;;;;;;;10.90;99.90;;;;;;7337465;19;109609;-69
2023/12/21 02:15:53;;;;;;;;;;;10.90;99.90;;;;;;7340762;19;109161;-69
2023/12/21 02:18:23;;;;;;;;;;;10.90;99.90;;;;;;7333948;19;109439;-69
2023/12/21 02:20:51;;;;;;;;;;;10.90;99.90;;;;;;7338049;19;109208;-69
2023/12/21 02:23:19;;;;;;;;;;;10.90;99.90;;;;;;7337205;19;108611;-69
2023/12/21 02:25:46;;;;;;;;;;;10.90;99.90;;;;;;7335905;19;110221;-87
2023/12/21 02:28:14;;;;;;;;;;;10.90;99.90;;;;;;7329921;19;112368;-87
2023/12/21 02:30:41;;;;;;;;;;;10.90;99.90;;;;;;7331386;19;108388;-85
2023/12/21 02:33:08;;;;;;;;;;;10.90;99.90;;;;;;7328193;19;110615;-88
2023/12/21 02:35:35;;;;;;;;;;;10.90;99.90;;;;;;7339246;19;109013;-70
2023/12/21 02:38:02;;;;;;;;;;;10.90;99.90;;;;;;7332593;19;109815;-70
2023/12/21 02:40:29;;;;;;;;;;;11.00;99.90;;;;;;7336249;19;108474;-70
2023/12/21 02:42:56;;;;;;;;;;;10.90;99.90;;;;;;7336627;19;108671;-70
2023/12/21 02:45:24;;;;;;;;;;;11.00;99.90;;;;;;7331978;19;109570;-69
2023/12/21 02:47:51;;;;;;;;;;;11.00;99.90;;;;;;7338984;19;110562;-70
2023/12/21 02:50:18;;;;;;;;;;;11.00;99.90;;;;;;7339498;19;108247;-70
2023/12/21 02:52:45;;;;;;;;;;;11.00;99.90;;;;;;7338058;19;110632;-70
2023/12/21 02:55:13;;;;;;;;;;;11.00;99.90;;;;;;7341162;19;108587;-70
2023/12/21 02:57:40;;;;;;;;;;;11.00;99.90;;;;;;7339391;19;110138;-70
2023/12/21 03:00:08;;;;;;;;;;;11.00;99.90;;;;;;7336348;19;108598;-70
2023/12/21 03:02:35;;;;;;;;;;;10.90;99.90;;;;;;7335981;19;111734;-70
2023/12/21 03:05:02;;;;;;;;;;;11.00;99.90;;;;;;7334517;19;110322;-70
2023/12/21 03:07:29;;;;;;;;;;;11.00;99.90;;;;;;7337955;19;109075;-68
2023/12/21 03:09:56;;;;;;;;;;;11.00;99.90;;;;;;7336119;19;108735;-68
2023/12/21 03:12:23;;;;;;;;;;;11.00;99.90;;;;;;7335202;19;109344;-68
2023/12/21 03:14:50;;;;;;;;;;;11.00;99.90;;;;;;7339437;19;108917;-68
2023/12/21 03:17:18;;;;;;;;;;;11.00;99.90;;;;;;7338245;19;108721;-68
2023/12/21 03:19:45;;;;;;;;;;;11.00;99.90;;;;;;7342103;19;109177;-67
2023/12/21 03:22:12;;;;;;;;;;;11.00;99.90;;;;;;7335192;19;109828;-68
2023/12/21 03:24:40;;;;;;;;;;;11.10;99.90;;;;;;7334121;19;111759;-67
2023/12/21 03:27:09;;;;;;;;;;;11.10;99.90;;;;;;7336309;19;108941;-68
2023/12/21 03:29:37;;;;;;;;;;;11.10;99.90;;;;;;7334197;19;110456;-68
2023/12/21 03:32:04;;;;;;;;;;;11.10;99.90;;;;;;7336099;19;110365;-67
2023/12/21 03:34:31;;;;;;;;;;;11.10;99.90;;;;;;7332108;19;108868;-70
2023/12/21 03:36:58;;;;;;;;;;;11.10;99.90;;;;;;7332536;19;111223;-68
2023/12/21 03:39:25;;;;;;;;;;;11.10;99.90;;;;;;7334920;19;109359;-70
2023/12/21 03:41:52;;;;;;;;;;;11.10;99.90;;;;;;7341177;19;110797;-70
2023/12/21 03:44:20;;;;;;;;;;;11.10;99.90;;;;;;7334861;19;109430;-70
2023/12/21 03:46:47;;;;;;;;;;;11.20;99.90;;;;;;7335161;19;109447;-70
2023/12/21 03:49:15;;;;;;;;;;;11.20;99.90;;;;;;7332436;19;111333;-70
2023/12/21 03:51:42;;;;;;;;;;;11.20;99.90;;;;;;7332311;19;109274;-70
2023/12/21 03:54:09;;;;;;;;;;;11.30;99.90;;;;;;7336549;19;110824;-70
2023/12/21 03:56:39;;;;;;;;;;;11.20;99.90;;;;;;7334723;19;108789;-70
2023/12/21 03:59:06;;;;;;;;;;;11.30;99.90;;;;;;7335156;19;108964;-70
2023/12/21 04:01:33;;;;;;;;;;;11.30;99.90;;;;;;7334735;19;109497;-70
2023/12/21 04:04:01;;;;;;;;;;;11.30;99.90;;;;;;7339180;19;109133;-71
2023/12/21 04:06:28;;;;;;;;;;;11.30;99.90;;;;;;7334636;19;109261;-70
2023/12/21 04:08:55;;;;;;;;;;;11.30;99.90;;;;;;7334859;19;108623;-70
2023/12/21 04:11:22;;;;;;;;;;;11.40;99.90;;;;;;7336736;19;109202;-70
2023/12/21 04:13:50;;;;;;;;;;;11.30;99.90;;;;;;7331084;19;109567;-70
2023/12/21 04:16:17;;;;;;;;;;;11.40;99.90;;;;;;7334018;19;109095;-70
2023/12/21 04:18:44;;;;;;;;;;;11.40;99.90;;;;;;7331817;19;109587;-70
2023/12/21 04:21:11;;;;;;;;;;;11.30;99.90;;;;;;7334684;19;108369;-70
2023/12/21 04:23:39;;;;;;;;;;;11.30;99.90;;;;;;7333001;19;108656;-70
2023/12/21 04:26:06;;;;;;;;;;;11.30;99.90;;;;;;7340620;19;110119;-70
2023/12/21 04:28:33;;;;;;;;;;;11.30;99.90;;;;;;7331366;19;109782;-70
2023/12/21 04:31:00;;;;;;;;;;;11.30;99.90;;;;;;7335045;19;113216;-70
2023/12/21 04:33:27;;;;;;;;;;;11.30;99.90;;;;;;7337106;19;108867;-70
2023/12/21 04:35:55;;;;;;;;;;;11.30;99.90;;;;;;7330237;19;110368;-70
2023/12/21 04:38:22;;;;;;;;;;;11.30;99.90;;;;;;7333017;19;109747;-70
2023/12/21 04:40:49;;;;;;;;;;;11.30;99.90;;;;;;7333062;19;108682;-70
2023/12/21 04:43:16;;;;;;;;;;;11.30;99.90;;;;;;7331849;19;109262;-70
2023/12/21 04:45:43;;;;;;;;;;;11.30;99.90;;;;;;7337924;19;110647;-68
2023/12/21 04:48:10;;;;;;;;;;;11.30;99.90;;;;;;7333336;19;108647;-68
2023/12/21 04:50:37;;;;;;;;;;;11.30;99.90;;;;;;7330956;19;109080;-67
2023/12/21 04:53:04;;;;;;;;;;;11.30;99.90;;;;;;7332227;19;108377;-70
2023/12/21 04:55:31;;;;;;;;;;;11.30;99.90;;;;;;7332402;19;109940;-70
2023/12/21 04:57:59;;;;;;;;;;;11.30;99.90;;;;;;7332261;19;110159;-70
2023/12/21 05:00:29;;;;;;;;;;;11.30;99.90;;;;;;7332916;19;109286;-70
2023/12/21 05:02:56;;;;;;;;;;;11.30;99.90;;;;;;7333177;19;109143;-70
2023/12/21 05:05:23;;;;;;;;;;;11.30;99.90;;;;;;7332025;19;109208;-67
2023/12/21 05:07:50;;;;;;;;;;;11.30;99.90;;;;;;7340909;19;108683;-70
2023/12/21 05:10:17;;;;;;;;;;;11.30;99.90;;;;;;7335688;19;109662;-68
2023/12/21 05:12:45;;;;;;;;;;;11.30;99.90;;;;;;7340935;19;108366;-67
2023/12/21 05:15:12;;;;;;;;;;;11.30;99.90;;;;;;7335252;19;109095;-68
2023/12/21 05:17:39;;;;;;;;;;;11.30;99.90;;;;;;7337135;19;109175;-68
2023/12/21 05:20:07;;;;;;;;;;;11.40;99.90;;;;;;7338206;19;109358;-70
2023/12/21 05:22:34;;;;;;;;;;;11.40;99.90;;;;;;7340553;19;110782;-70
2023/12/21 05:25:02;;;;;;;;;;;11.40;99.90;;;;;;7339723;19;109765;-70
2023/12/21 05:27:29;;;;;;;;;;;11.40;99.90;;;;;;7337280;19;108806;-70
2023/12/21 05:29:57;;;;;;;;;;;11.40;99.90;;;;;;7342803;19;109013;-70
2023/12/21 05:32:24;;;;;;;;;;;11.50;99.90;;;;;;7338357;19;108943;-70
2023/12/21 05:34:51;;;;;;;;;;;11.40;99.90;;;;;;7337560;19;112482;-70
2023/12/21 05:37:18;;;;;;;;;;;11.50;99.90;;;;;;7337169;19;109172;-70
2023/12/21 05:39:48;;;;;;;;;;;11.50;99.90;;;;;;7337403;19;108492;-68
2023/12/21 05:42:15;;;;;;;;;;;11.50;99.90;;;;;;7340666;19;109977;-68
2023/12/21 05:44:42;;;;;;;;;;;11.50;99.90;;;;;;7336320;19;109213;-70
2023/12/21 05:47:09;;;;;;;;;;;11.50;99.90;;;;;;7339958;19;109339;-70
2023/12/21 05:49:36;;;;;;;;;;;11.50;99.90;;;;;;7339166;19;109324;-70
2023/12/21 05:52:03;;;;;;;;;;;11.60;99.90;;;;;;7342433;19;109164;-70
2023/12/21 05:54:31;;;;;;;;;;;11.60;99.90;;;;;;7339700;19;109954;-70
2023/12/21 05:56:59;;;;;;;;;;;11.60;99.90;;;;;;7338626;19;110054;-70
2023/12/21 05:59:26;;;;;;;;;;;11.60;99.90;;;;;;7340179;19;112727;-68
2023/12/21 06:01:53;;;;;;;;;;;11.60;99.90;;;;;;7339766;19;110932;-68
2023/12/21 06:04:20;;;;;;;;;;;11.70;99.90;;;;;;7338150;19;109164;-68
2023/12/21 06:06:48;;;;;;;;;;;11.70;99.90;;;;;;7336001;19;111026;-68
2023/12/21 06:09:15;;;;;;;;;;;11.70;99.90;;;;;;7338796;19;109706;-68
2023/12/21 06:11:42;;;;;;;;;;;11.70;99.90;;;;;;7339797;19;109867;-68
2023/12/21 06:14:09;;;;;;;;;;;11.70;99.90;;;;;;7341951;19;109372;-68
2023/12/21 06:16:36;;;;;;;;;;;11.70;99.90;;;;;;7337185;19;110458;-68
2023/12/21 06:19:09;;;;;;;;;;;11.70;99.90;;;;;;7338622;19;109802;-68
2023/12/21 06:21:40;;;;;;;;;;;11.70;99.90;;;;;;7336856;19;108494;-68
2023/12/21 06:24:07;;;;;;;;;;;11.70;99.90;;;;;;7336214;19;110058;-68
2023/12/21 06:26:43;;;;;;;;;;;11.80;99.90;;;;;;7336058;19;110020;-68
2023/12/21 06:29:10;;;;;;;;;;;11.80;99.90;;;;;;7336272;19;109376;-68
2023/12/21 06:31:37;;;;;;;;;;;11.80;99.90;;;;;;7337203;19;110052;-68
2023/12/21 06:34:05;;;;;;;;;;;11.80;99.90;;;;;;7335402;19;109181;-68
2023/12/21 06:36:32;;;;;;;;;;;11.80;99.90;;;;;;7340359;19;108945;-68
2023/12/21 06:38:59;;;;;;;;;;;11.90;99.90;;;;;;7338757;19;109315;-68
2023/12/21 06:41:27;;;;;;;;;;;11.90;99.90;;;;;;7336137;19;108835;-68
2023/12/21 06:43:54;;;;;;;;;;;11.80;99.90;;;;;;7338450;19;109342;-68
2023/12/21 06:46:21;;;;;;;;;;;11.80;99.90;;;;;;7338751;19;109284;-68
2023/12/21 06:48:48;;;;;;;;;;;11.80;99.90;;;;;;7335873;19;110164;-68
2023/12/21 06:51:16;;;;;;;;;;;11.90;99.90;;;;;;7338736;19;110252;-68
2023/12/21 06:53:43;;;;;;;;;;;11.90;99.90;;;;;;7337694;19;108392;-69
2023/12/21 06:56:10;;;;;;;;;;;11.90;99.90;;;;;;7339939;19;109781;-69
2023/12/21 06:58:57;;;;;;;;;;;11.90;99.90;;;;;;7338523;19;108624;-69
2023/12/21 07:01:25;;;;;;;;;;;11.90;99.90;;;;;;7335070;19;109048;-75
2023/12/21 07:03:53;;;;;;;;;;;11.90;99.90;;;;;;7334897;19;110604;-76
2023/12/21 07:06:20;;;;;;;;;;;11.90;99.90;;;;;;7337380;19;108597;-75
2023/12/21 07:08:47;;;;;;;;;;;11.80;99.90;;;;;;7336015;19;109837;-72
2023/12/21 07:11:15;;;;;;;;;;;11.90;99.90;;;;;;7333262;19;110790;-72
2023/12/21 07:13:42;;;;;;;;;;;11.90;99.90;;;;;;7337444;19;108850;-73
2023/12/21 07:16:09;;;;;;;;;;;11.90;99.90;;;;;;7337161;19;109233;-73
2023/12/21 07:18:40;;;;;;;;;;;11.80;99.90;;;;;;7338489;19;129289;-72
2023/12/21 07:21:07;;;;;;;;;;;11.90;99.90;;;;;;7336793;19;109116;-71
2023/12/21 07:23:35;;;;;;;;;;;11.90;99.90;;;;;;7337541;19;112738;-72
2023/12/21 07:26:02;;;;;;;;;;;11.90;99.90;;;;;;7335579;19;109306;-71
2023/12/21 07:28:31;;;;;;;;;;;11.90;99.90;;;;;;7335537;19;109169;-72
2023/12/21 07:31:01;;;;;;;;;;;11.90;99.90;;;;;;7333338;19;110372;-72
2023/12/21 07:33:28;;;;;;;;;;;11.90;99.90;;;;;;7336508;19;109867;-72
2023/12/21 07:35:56;;;;;;;;;;;12.00;99.90;;;;;;7333527;19;109931;-72
2023/12/21 07:38:23;;;;;;;;;;;12.00;99.90;;;;;;7337922;19;110165;-71
2023/12/21 07:40:51;;;;;;;;;;;12.00;99.90;;;;;;7340544;19;108596;-72
2023/12/21 07:43:19;;;;;;;;;;;12.00;99.90;;;;;;7336851;19;110238;-72
2023/12/21 07:45:46;;;;;;;;;;;12.00;99.90;;;;;;7337585;19;108300;-72
2023/12/21 07:48:13;;;;;;;;;;;12.00;99.90;;;;;;7337158;19;109196;-71
2023/12/21 07:50:40;;;;;;;;;;;12.00;99.90;;;;;;7333957;19;110156;-72
2023/12/21 07:53:07;;;;;;;;;;;12.00;99.90;;;;;;7336310;19;108993;-71
2023/12/21 07:55:34;;;;;;;;;;;12.00;99.90;;;;;;7335905;19;108992;-71
2023/12/21 07:58:02;;;;;;;;;;;12.00;99.90;;;;;;7338074;19;110323;-71
2023/12/21 08:00:29;;;;;;;;;;;12.00;99.90;;;;;;7337094;19;108687;-72
2023/12/21 08:02:56;;;;;;;;;;;11.90;99.90;;;;;;7344097;19;108620;-71
2023/12/21 08:05:23;;;;;;;;;;;11.90;99.90;;;;;;7334432;19;108500;-72
2023/12/21 08:07:51;;;;;;;;;;;11.90;99.90;;;;;;7338735;19;109702;-72
2023/12/21 08:10:18;;;;;;;;;;;11.90;99.90;;;;;;7334853;19;109137;-71
2023/12/21 08:12:46;;;;;;;;;;;11.90;99.90;;;;;;7333350;19;112165;-71
2023/12/21 08:15:14;;;;;;;;;;;11.90;99.90;;;;;;7336714;19;109492;-72
2023/12/21 08:17:43;;;;;;;;;;;11.80;99.90;;;;;;7336345;19;109219;-72
2023/12/21 08:20:15;;;;;;;;;;;11.80;99.90;;;;;;7337030;19;109367;-72
2023/12/21 08:22:43;;;;;;;;;;;11.80;99.90;;;;;;7334582;19;110008;-75
2023/12/21 08:25:11;;;;;;;;;;;11.80;99.90;;;;;;7341467;19;109670;-73
2023/12/21 08:27:41;;;;;;;;;;;11.80;99.90;;;;;;7336038;19;109109;-72
2023/12/21 08:30:09;;;;;;;;;;;11.70;99.90;;;;;;7333291;19;110236;-73
2023/12/21 08:32:36;;;;;;;;;;;11.70;99.90;;;;;;7332159;19;109111;-72
2023/12/21 08:35:04;;;;;;;;;;;11.80;99.90;;;;;;7333780;19;109608;-73
2023/12/21 08:37:31;;;;;;;;;;;11.80;99.90;;;;;;7335060;19;110683;-73
2023/12/21 08:39:58;;;;;;;;;;;11.80;99.90;;;;;;7335799;19;108840;-73
2023/12/21 08:42:26;;;;;;;;;;;11.80;99.90;;;;;;7335071;19;111332;-75
2023/12/21 08:44:53;;;;;;;;;;;11.70;99.90;;;;;;7342956;19;110950;-73
2023/12/21 08:47:20;;;;;;;;;;;11.80;99.90;;;;;;7346876;19;108762;-86
2023/12/21 08:49:48;;;;;;;;;;;11.80;99.90;;;;;;7333740;19;109447;-86
2023/12/21 08:54:46;;;;;;;;;;;11.80;99.90;;;;;;7344641;19;109255;-71
2023/12/21 08:57:13;;;;;;;;;;;11.80;99.90;;;;;;7339954;19;110127;-71
2023/12/21 08:59:40;;;;;;;;;;;11.80;99.90;;;;;;7341207;19;108527;-73
2023/12/21 09:02:07;;;;;;;;;;;11.80;99.90;;;;;;7340684;19;109079;-71
2023/12/21 09:04:34;;;;;;;;;;;11.80;99.90;;;;;;7335874;19;110291;-86
2023/12/21 09:07:02;;;;;;;;;;;11.70;99.90;;;;;;7342989;19;108820;-86
2023/12/21 09:09:29;;;;;;;;;;;11.80;99.90;;;;;;7332918;19;110465;-85
2023/12/21 09:11:56;;;;;;;;;;;11.80;99.90;;;;;;7334494;19;109234;-86
2023/12/21 09:14:24;;;;;;;;;;;11.80;99.90;;;;;;7332058;19;108993;-85
2023/12/21 09:16:51;;;;;;;;;;;11.80;99.90;;;;;;7331349;19;110491;-85
2023/12/21 09:19:19;;;;;;;;;;;11.90;99.90;;;;;;7332105;19;108843;-86
2023/12/21 09:21:46;;;;;;;;;;;11.90;99.90;;;;;;7334088;19;111488;-86
2023/12/21 09:24:13;;;;;;;;;;;11.90;99.90;;;;;;7329235;19;109433;-86
2023/12/21 09:26:40;;;;;;;;;;;11.90;99.90;;;;;;7332949;19;108424;-86
2023/12/21 09:29:07;;;;;;;;;;;12.00;99.90;;;;;;7337120;19;111708;-85
2023/12/21 09:31:34;;;;;;;;;;;12.00;99.90;;;;;;7335564;19;109264;-86
2023/12/21 09:34:02;;;;;;;;;;;12.10;99.90;;;;;;7332596;19;109679;-85
2023/12/21 09:36:29;;;;;;;;;;;12.10;99.90;;;;;;7330630;19;111052;-86
2023/12/21 09:38:56;;;;;;;;;;;12.10;99.90;;;;;;7332458;19;109305;-85
2023/12/21 09:41:31;;;;;;;;;;;12.20;99.90;;;;;;7334365;19;110576;-87
2023/12/21 09:43:59;;;;;;;;;;;12.20;99.90;;;;;;7334266;19;109356;-85
2023/12/21 09:46:28;;;;;;;;;;;12.30;99.90;;;;;;7332247;19;111260;-85
2023/12/21 09:48:55;;;;;;;;;;;12.30;99.90;;;;;;7336924;19;109177;-71
2023/12/21 09:51:24;;;;;;;;;;;12.30;99.90;;;;;;7342877;19;109479;-72
2023/12/21 09:53:53;;;;;;;;;;;12.30;99.90;;;;;;7337388;19;109157;-72
2023/12/21 09:56:20;;;;;;;;;;;12.40;99.90;;;;;;7337552;19;109661;-72
2023/12/21 09:58:48;;;;;;;;;;;12.30;99.90;;;;;;7338802;19;108881;-73
2023/12/21 10:01:15;;;;;;;;;;;12.40;99.90;;;;;;7338022;19;109030;-72
2023/12/21 10:03:44;;;;;;;;;;;12.40;99.90;;;;;;7338394;19;110901;-73
2023/12/21 10:06:12;;;;;;;;;;;12.50;99.90;;;;;;7337913;19;108869;-72
2023/12/21 10:08:41;;;;;;;;;;;12.50;99.90;;;;;;7337515;19;108837;-73
2023/12/21 10:11:09;;;;;;;;;;;12.60;99.90;;;;;;7338306;19;110570;-72
2023/12/21 10:13:36;;;;;;;;;;;12.60;99.90;;;;;;7342619;19;108725;-72
2023/12/21 10:16:04;;;;;;;;;;;12.60;99.90;;;;;;7335033;19;109227;-75
2023/12/21 10:18:31;;;;;;;;;;;12.60;99.90;;;;;;7338074;19;108644;-72
2023/12/21 10:20:59;;;;;;;;;;;12.60;99.90;;;;;;7338239;19;110416;-72
2023/12/21 10:23:26;;;;;;;;;;;12.70;99.90;;;;;;7336000;19;113082;-72
2023/12/21 10:25:58;;;;;;;;;;;12.70;99.90;;;;;;7336304;19;109105;-72
2023/12/21 10:28:25;;;;;;;;;;;12.80;99.90;;;;;;7338346;19;109467;-72
2023/12/21 10:30:57;;;;;;;;;;;12.80;99.90;;;;;;7338461;19;111496;-73
2023/12/21 10:33:27;;;;;;;;;;;12.80;99.90;;;;;;7335968;19;110079;-73
2023/12/21 10:35:55;;;;;;;;;;;12.80;99.90;;;;;;7340728;19;109462;-72
2023/12/21 10:38:22;;;;;;;;;;;12.90;99.90;;;;;;7337455;19;108741;-73
2023/12/21 10:40:49;;;;;;;;;;;12.90;99.90;;;;;;7338705;19;109784;-72
2023/12/21 10:43:17;;;;;;;;;;;12.90;99.90;;;;;;7334754;19;110698;-72
2023/12/21 10:45:45;;;;;;;;;;;12.90;99.90;;;;;;7336341;19;109302;-72
2023/12/21 10:48:12;;;;;;;;;;;12.90;99.90;;;;;;7336927;19;109102;-72
2023/12/21 10:50:40;;;;;;;;;;;13.00;99.90;;;;;;7332418;19;109100;-72
2023/12/21 10:53:09;;;;;;;;;;;12.90;99.90;;;;;;7335922;19;109658;-72
2023/12/21 10:55:37;;;;;;;;;;;12.90;99.90;;;;;;7342453;19;108590;-72
2023/12/21 10:58:06;;;;;;;;;;;12.90;99.90;;;;;;7338101;19;109090;-72
2023/12/21 11:00:34;;;;;;;;;;;12.90;99.90;;;;;;7334382;19;112203;-73
2023/12/21 11:03:02;;;;;;;;;;;12.90;99.90;;;;;;7336242;19;112423;-72
2023/12/21 11:05:32;;;;;;;;;;;12.90;99.90;;;;;;7333068;19;109367;-72
2023/12/21 11:08:00;;;;;;;;;;;12.80;99.90;;;;;;7338441;19;109389;-72
2023/12/21 11:10:36;;;;;;;;;;;12.80;99.90;;;;;;7334377;19;109248;-73
2023/12/21 11:13:03;;;;;;;;;;;12.80;99.90;;;;;;7336909;19;108793;-72
2023/12/21 11:15:31;;;;;;;;;;;12.80;99.90;;;;;;7335535;19;108735;-72
2023/12/21 11:18:06;;;;;;;;;;;12.90;99.90;;;;;;7341034;19;110704;-73
2023/12/21 11:20:36;;;;;;;;;;;12.90;99.90;;;;;;7335539;19;110342;-73
2023/12/21 11:23:13;;;;;;;;;;;12.80;99.90;;;;;;7334825;19;109558;-72
2023/12/21 11:25:41;;;;;;;;;;;12.80;99.90;;;;;;7332122;19;109834;-73
2023/12/21 11:28:08;;;;;;;;;;;12.90;99.90;;;;;;7336524;19;110839;-73
2023/12/21 11:30:35;;;;;;;;;;;12.80;99.90;;;;;;7334773;19;112358;-72
2023/12/21 11:33:03;;;;;;;;;;;12.80;99.90;;;;;;7335655;19;108589;-72
2023/12/21 11:35:31;;;;;;;;;;;12.80;99.90;;;;;;7334698;19;113950;-72
2023/12/21 11:37:59;;;;;;;;;;;12.80;99.90;;;;;;7337059;19;111866;-72
2023/12/21 11:40:26;;;;;;;;;;;12.80;99.90;;;;;;7341434;19;108644;-72
2023/12/21 11:42:54;;;;;;;;;;;12.80;99.90;;;;;;7335182;19;109052;-73
2023/12/21 11:45:22;;;;;;;;;;;12.80;99.90;;;;;;7335342;19;108994;-73
2023/12/21 11:47:50;;;;;;;;;;;12.70;99.90;;;;;;7336308;19;108522;-72
2023/12/21 11:50:18;;;;;;;;;;;12.70;99.90;;;;;;7333824;19;113094;-73
2023/12/21 11:52:46;;;;;;;;;;;12.80;99.90;;;;;;7337130;19;108731;-73
2023/12/21 11:55:26;;;;;;;;;;;12.80;99.90;;;;;;7333839;19;110246;-72
2023/12/21 11:58:06;;;;;;;;;;;12.80;99.90;;;;;;7335167;19;109269;-72
2023/12/21 12:00:33;;;;;;;;;;;12.80;99.90;;;;;;7332840;19;109811;-73
2023/12/21 12:03:01;;;;;;;;;;;12.80;99.90;;;;;;7340746;19;109394;-76
2023/12/21 12:05:29;;;;;;;;;;;12.80;99.90;;;;;;7334927;19;110444;-76
2023/12/21 12:07:57;;;;;;;;;;;12.80;99.90;;;;;;7334071;19;109021;-75
2023/12/21 12:10:24;;;;;;;;;;;12.80;99.90;;;;;;7334361;19;110334;-76
2023/12/21 12:12:54;;;;;;;;;;;12.80;99.90;;;;;;7334016;19;109110;-75
2023/12/21 12:15:22;;;;;;;;;;;12.80;99.90;;;;;;7334233;19;109059;-73
2023/12/21 12:17:49;;;;;;;;;;;12.90;99.90;;;;;;7336601;19;109279;-73
2023/12/21 12:20:16;;;;;;;;;;;12.90;99.90;;;;;;7332664;19;108540;-74
2023/12/21 12:22:44;;;;;;;;;;;12.90;99.90;;;;;;7334058;19;109186;-74
2023/12/21 12:25:16;;;;;;;;;;;12.90;99.90;;;;;;7339950;19;110174;-73
2023/12/21 12:27:46;;;;;;;;;;;12.90;99.90;;;;;;7335540;19;109235;-72
2023/12/21 12:30:13;;;;;;;;;;;13.00;99.90;;;;;;7330324;19;110550;-73
2023/12/21 12:32:42;;;;;;;;;;;13.00;99.90;;;;;;7336315;19;109029;-73
2023/12/21 12:35:09;;;;;;;;;;;13.00;99.90;;;;;;7333457;19;109462;-73
2023/12/21 12:37:36;;;;;;;;;;;13.00;99.90;;;;;;7336127;19;110635;-73
2023/12/21 12:40:05;;;;;;;;;;;13.00;99.90;;;;;;7337138;19;110710;-72
2023/12/21 12:42:32;;;;;;;;;;;13.00;99.90;;;;;;7336149;19;109238;-72
2023/12/21 12:45:00;;;;;;;;;;;13.00;99.90;;;;;;7333167;19;109738;-72
2023/12/21 12:47:27;;;;;;;;;;;13.00;99.90;;;;;;7339289;19;108636;-73
2023/12/21 12:49:54;;;;;;;;;;;13.00;99.90;;;;;;7336958;19;109782;-73
2023/12/21 12:52:22;;;;;;;;;;;13.00;99.90;;;;;;7332667;19;108927;-73
2023/12/21 12:54:50;;;;;;;;;;;13.00;99.90;;;;;;7334410;19;109125;-72
2023/12/21 12:57:17;;;;;;;;;;;13.00;99.90;;;;;;7330285;19;110282;-72
2023/12/21 12:59:44;;;;;;;;;;;12.90;99.90;;;;;;7334204;19;109372;-73
2023/12/21 13:02:12;;;;;;;;;;;13.00;99.90;;;;;;7334253;19;109667;-72
2023/12/21 13:04:39;;;;;;;;;;;12.90;99.90;;;;;;7333461;19;109732;-72
2023/12/21 13:07:06;;;;;;;;;;;13.00;99.90;;;;;;7337969;19;108746;-72
2023/12/21 13:09:35;;;;;;;;;;;13.00;99.90;;;;;;7334784;19;111338;-73
2023/12/21 13:12:03;;;;;;;;;;;13.00;99.90;;;;;;7336429;19;109079;-72
2023/12/21 13:14:30;;;;;;;;;;;13.10;99.90;;;;;;7329624;19;108453;-72
2023/12/21 13:16:58;;;;;;;;;;;13.10;99.90;;;;;;7333750;19;109759;-73
2023/12/21 13:19:25;;;;;;;;;;;13.10;99.90;;;;;;7333065;19;109378;-72
2023/12/21 13:21:52;;;;;;;;;;;13.10;99.90;;;;;;7335938;19;109715;-72
2023/12/21 13:24:19;;;;;;;;;;;13.20;99.90;;;;;;7329288;19;109280;-72
2023/12/21 13:26:49;;;;;;;;;;;13.20;99.90;;;;;;7333344;19;108606;-72
2023/12/21 13:29:18;;;;;;;;;;;13.30;99.90;;;;;;7341102;19;108988;-73
2023/12/21 13:31:45;;;;;;;;;;;13.30;99.90;;;;;;7340273;19;108765;-73
2023/12/21 13:34:13;;;;;;;;;;;13.30;99.90;;;;;;7338810;19;108876;-73
2023/12/21 13:36:40;;;;;;;;;;;13.40;99.90;;;;;;7337880;19;113539;-72
2023/12/21 13:39:08;;;;;;;;;;;13.50;99.90;;;;;;7341473;19;108884;-73
2023/12/21 13:41:35;;;;;;;;;;;13.40;99.90;;;;;;7341953;19;109121;-73
2023/12/21 13:44:04;;;;;;;;;;;13.40;99.90;;;;;;7338906;19;109736;-72
2023/12/21 13:46:41;;;;;;;;;;;13.50;99.90;;;;;;7338588;19;112479;-73
2023/12/21 13:49:08;;;;;;;;;;;13.40;99.90;;;;;;7338537;19;109640;-73
2023/12/21 13:51:35;;;;;;;;;;;13.40;99.90;;;;;;7344793;19;109817;-72
2023/12/21 13:54:03;;;;;;;;;;;13.40;99.90;;;;;;7337912;19;110324;-73
2023/12/21 13:56:30;;;;;;;;;;;13.40;99.90;;;;;;7341614;19;110081;-72
2023/12/21 13:58:57;;;;;;;;;;;13.40;99.90;;;;;;7339910;19;108865;-72
2023/12/21 14:01:24;;;;;;;;;;;13.50;99.90;;;;;;7342075;19;109284;-73
2023/12/21 14:03:55;;;;;;;;;;;13.50;99.90;;;;;;7338602;19;109569;-74
2023/12/21 14:06:22;;;;;;;;;;;13.50;99.90;;;;;;7338458;19;109195;-72
2023/12/21 14:08:49;;;;;;;;;;;13.50;99.90;;;;;;7341668;19;108855;-72